Terminal Aerodrome Forecast
Issued by NWS

Home | Current Version | Previous Version | Graphics & Text | Print | Product List | Glossary On
Versions: 1 2 3 4 5 6 7 8 9 10 11 12 13 14
699
FTUS43 KIWX 242330
TAFSBN
TAF
KSBN 242330Z 2500/2524 22012KT P6SM VCTS SCT025 BKN200CB
     FM250300 23008KT P6SM VCTS BKN150CB
     FM250600 25005KT P6SM BKN120
     FM251200 31005KT P6SM BKN250=

USA.gov is the U.S. government's official web portal to all federal, state and local government web resources and services.